Time;durP1;ratioP1;P1;durP2;ratioP2;P2;SDS_P1;SDS_P2;PMS_P1;PMS_P2;Temp;Humidity;BMP_temperature;BMP_pressure;BME280_temperature;BME280_humidity;BME280_pressure;Samples;Min_cycle;Max_cycle;Signal;HPM_P1;HPM_P2
2023/06/13 00:02:25;;;;;;;6.43;4.63;;;;;;;24.18;32.32;101257.63;4986341;28;20026;-83
2023/06/13 00:04:51;;;;;;;4.40;4.00;;;;;;;23.82;33.78;101266.34;4990301;28;20156;-83
2023/06/13 00:07:17;;;;;;;4.82;4.32;;;;;;;23.41;33.83;101266.31;4984792;28;20548;-83
2023/06/13 00:09:43;;;;;;;6.93;4.03;;;;;;;23.43;33.56;101268.88;4967073;28;20106;-83
2023/06/13 00:12:09;;;;;;;8.00;4.00;;;;;;;23.38;34.19;101266.56;4983424;28;20050;-83
2023/06/13 00:14:35;;;;;;;4.95;4.40;;;;;;;23.09;33.93;101255.63;4988940;28;20501;-84
2023/06/13 00:17:02;;;;;;;4.25;3.65;;;;;;;23.12;34.82;101254.50;4980551;28;20386;-83
2023/06/13 00:19:28;;;;;;;6.88;4.57;;;;;;;23.01;34.08;101252.72;4985437;28;20332;-84
2023/06/13 00:21:56;;;;;;;7.45;4.63;;;;;;;22.92;35.76;101251.66;4987196;28;20117;-84
2023/06/13 00:24:22;;;;;;;5.93;4.75;;;;;;;22.91;34.55;101254.50;4989581;28;20022;-83
2023/06/13 00:26:47;;;;;;;4.88;4.07;;;;;;;22.71;34.41;101253.50;4995144;28;20091;-83
2023/06/13 00:29:12;;;;;;;6.60;4.65;;;;;;;22.85;34.69;101257.72;4986503;28;20031;-84
2023/06/13 00:31:38;;;;;;;5.00;3.80;;;;;;;22.85;38.72;101253.16;4984420;28;20041;-84
2023/06/13 00:34:03;;;;;;;4.60;4.05;;;;;;;22.82;34.98;101253.41;4984139;28;20096;-84
2023/06/13 00:36:28;;;;;;;4.97;4.45;;;;;;;22.88;36.23;101252.03;4986958;28;20071;-84
2023/06/13 00:38:57;;;;;;;5.95;4.25;;;;;;;22.79;36.03;101253.66;4984186;28;20169;-83
2023/06/13 00:41:23;;;;;;;9.85;4.90;;;;;;;22.90;34.92;101266.28;4984569;28;20506;-84
2023/06/13 00:43:48;;;;;;;6.10;4.50;;;;;;;22.91;35.17;101257.22;4979694;28;20030;-84
2023/06/13 00:46:17;;;;;;;6.20;4.10;;;;;;;22.89;35.82;101259.16;4984538;28;20065;-83
2023/06/13 00:48:44;;;;;;;7.20;4.30;;;;;;;22.65;35.10;101260.22;4983362;28;20425;-83
2023/06/13 00:51:11;;;;;;;6.20;4.45;;;;;;;22.54;35.56;101257.59;4979423;28;20041;-84
2023/06/13 00:53:36;;;;;;;7.30;4.32;;;;;;;22.33;36.38;101254.84;4977941;28;20117;-84
2023/06/13 00:56:04;;;;;;;5.95;4.25;;;;;;;22.22;36.07;101252.19;4986793;28;20141;-84
2023/06/13 00:58:30;;;;;;;5.50;4.70;;;;;;;22.20;38.07;101251.47;4987638;28;20030;-84
2023/06/13 01:00:56;;;;;;;5.47;4.38;;;;;;;22.26;37.16;101256.34;4987779;28;20159;-84
2023/06/13 01:03:21;;;;;;;4.85;4.32;;;;;;;22.22;36.27;101251.34;4982277;28;20023;-84
2023/06/13 01:05:47;;;;;;;7.03;4.97;;;;;;;22.02;36.16;101245.72;4986431;28;20509;-84
2023/06/13 01:08:16;;;;;;;5.20;4.38;;;;;;;22.15;37.11;101243.78;4969008;28;20438;-84
2023/06/13 01:10:42;;;;;;;5.80;4.38;;;;;;;22.01;36.49;101232.38;4981175;28;20037;-84
2023/06/13 01:13:16;;;;;;;7.60;4.80;;;;;;;21.82;36.78;101246.47;4985249;28;20030;-84
2023/06/13 01:16:01;;;;;;;5.97;4.47;;;;;;;21.82;36.99;101244.66;4962169;28;21515;-84
2023/06/13 01:18:30;;;;;;;8.63;5.00;;;;;;;21.72;37.49;101232.91;4981537;28;20385;-84
2023/06/13 01:21:00;;;;;;;7.18;4.53;;;;;;;21.65;37.40;101242.47;4985050;28;20030;-84
2023/06/13 01:23:36;;;;;;;7.40;5.28;;;;;;;21.94;37.05;101241.94;4983512;28;20117;-84
2023/06/13 01:26:15;;;;;;;7.72;4.70;;;;;;;21.87;37.15;101249.69;4986166;28;20041;-84
2023/06/13 01:28:45;;;;;;;8.35;4.45;;;;;;;21.78;37.48;101232.44;4984909;28;20030;-84
2023/06/13 01:31:15;;;;;;;5.35;4.57;;;;;;;21.77;37.17;101248.69;4966677;28;20036;-84
2023/06/13 01:33:41;;;;;;;7.72;4.80;;;;;;;21.83;37.32;101246.38;4982663;28;20052;-84
2023/06/13 01:36:07;;;;;;;6.43;4.28;;;;;;;21.65;38.11;101250.56;4986016;28;20497;-84
2023/06/13 01:38:32;;;;;;;6.07;4.50;;;;;;;21.47;38.30;101242.09;4987071;28;20037;-84
2023/06/13 01:40:58;;;;;;;5.70;4.97;;;;;;;21.71;39.48;101247.34;4978619;28;20046;-84
2023/06/13 01:43:23;;;;;;;6.82;4.95;;;;;;;21.61;38.09;101249.09;4976061;28;20057;-84
2023/06/13 01:45:56;;;;;;;7.18;5.00;;;;;;;21.66;40.19;101254.94;4981892;28;20118;-84
2023/06/13 01:48:24;;;;;;;6.55;5.43;;;;;;;21.55;38.64;101242.34;4986971;28;20117;-84
2023/06/13 01:50:52;;;;;;;6.22;4.90;;;;;;;21.33;38.46;101245.03;4981592;28;20960;-84
2023/06/13 01:53:26;;;;;;;6.88;5.22;;;;;;;21.23;38.63;101244.88;4987416;28;20029;-84
2023/06/13 01:55:57;;;;;;;7.78;5.07;;;;;;;21.24;38.19;101241.19;4980508;28;20180;-84
2023/06/13 01:58:29;;;;;;;8.52;5.45;;;;;;;21.25;38.65;101239.38;4964880;28;20621;-84
2023/06/13 02:00:56;;;;;;;7.30;4.93;;;;;;;21.26;38.15;101238.38;4979454;28;20410;-84
2023/06/13 02:03:23;;;;;;;5.68;5.00;;;;;;;21.05;38.79;101232.88;4980477;28;20526;-84
2023/06/13 02:05:49;;;;;;;7.75;5.05;;;;;;;21.00;39.31;101237.75;4981520;28;20046;-84
2023/06/13 02:08:16;;;;;;;6.65;4.97;;;;;;;20.94;39.12;101232.84;4984519;28;20037;-84
2023/06/13 02:10:41;;;;;;;6.65;5.28;;;;;;;20.94;40.23;101235.53;4968303;28;20050;-84
2023/06/13 02:13:06;;;;;;;7.70;5.25;;;;;;;20.76;39.62;101235.13;4983676;28;20486;-84
2023/06/13 02:15:31;;;;;;;7.10;5.05;;;;;;;20.88;39.42;101235.03;4979513;28;20485;-84
2023/06/13 02:17:57;;;;;;;8.75;5.28;;;;;;;20.80;39.34;101234.78;4985160;28;20023;-84
2023/06/13 02:20:22;;;;;;;8.45;5.00;;;;;;;20.87;39.75;101238.69;4983831;28;20390;-84
2023/06/13 02:22:47;;;;;;;7.97;5.63;;;;;;;20.77;39.85;101236.84;4979081;28;20018;-84
2023/06/13 02:25:14;;;;;;;7.22;5.28;;;;;;;20.78;41.50;101233.16;4985025;28;20034;-84
2023/06/13 02:27:39;;;;;;;9.20;5.72;;;;;;;20.77;40.24;101232.31;4980031;28;20034;-84
2023/06/13 02:30:07;;;;;;;8.38;5.32;;;;;;;20.81;40.61;101232.94;4981546;28;20378;-84
2023/06/13 02:32:33;;;;;;;9.23;5.53;;;;;;;20.78;39.94;101234.03;4984183;28;20030;-84
2023/06/13 02:34:58;;;;;;;6.70;4.88;;;;;;;20.82;39.86;101237.34;4981058;28;20492;-84
2023/06/13 02:37:24;;;;;;;7.95;5.40;;;;;;;20.75;40.36;101228.03;4962557;28;20123;-84
2023/06/13 02:39:49;;;;;;;7.60;5.20;;;;;;;20.73;40.35;101241.59;4983211;28;20034;-84
2023/06/13 02:42:14;;;;;;;8.30;5.40;;;;;;;20.57;44.82;101227.63;4986072;28;20030;-84
2023/06/13 02:44:41;;;;;;;9.68;5.85;;;;;;;20.47;41.07;101232.84;4966882;28;20053;-84
2023/06/13 02:47:06;;;;;;;11.50;6.10;;;;;;;20.42;41.17;101237.63;4978091;28;20470;-84
2023/06/13 02:49:31;;;;;;;9.20;5.30;;;;;;;20.36;41.08;101232.72;4978646;28;20026;-84
2023/06/13 02:51:57;;;;;;;7.00;5.57;;;;;;;20.38;41.58;101242.41;4982011;28;20172;-84
2023/06/13 02:54:22;;;;;;;8.45;5.85;;;;;;;20.41;42.03;101240.44;4983055;28;20034;-84
2023/06/13 02:56:47;;;;;;;8.70;6.03;;;;;;;20.32;41.91;101231.25;4981628;28;20512;-84
2023/06/13 02:59:12;;;;;;;10.13;5.22;;;;;;;20.38;41.48;101242.41;4981550;28;20039;-84
2023/06/13 03:01:38;;;;;;;9.25;5.95;;;;;;;20.36;41.00;101238.97;4984578;28;20026;-84
2023/06/13 03:04:03;;;;;;;8.80;5.30;;;;;;;20.35;41.25;101239.09;4984790;28;20038;-84
2023/06/13 03:06:31;;;;;;;9.45;5.82;;;;;;;20.15;41.98;101234.34;4985366;28;20050;-84
2023/06/13 03:08:58;;;;;;;10.90;5.93;;;;;;;20.21;41.93;101240.09;4971037;28;20034;-84
2023/06/13 03:11:24;;;;;;;7.40;4.90;;;;;;;20.24;42.09;101237.22;4982844;28;20026;-84
2023/06/13 03:13:49;;;;;;;7.10;6.05;;;;;;;20.17;42.03;101235.09;4989804;28;20026;-84
2023/06/13 03:16:14;;;;;;;8.48;5.35;;;;;;;20.08;42.10;101245.53;4964417;28;20019;-84
2023/06/13 03:18:40;;;;;;;8.00;5.60;;;;;;;20.11;42.58;101236.41;4989938;28;20030;-84
2023/06/13 03:21:05;;;;;;;7.38;6.15;;;;;;;20.04;42.63;101237.81;4987090;28;20482;-84
2023/06/13 03:23:31;;;;;;;6.60;5.80;;;;;;;20.07;42.30;101237.59;4989039;28;20026;-84
2023/06/13 03:25:57;;;;;;;7.15;6.30;;;;;;;20.05;42.44;101240.41;4982873;28;20031;-84
2023/06/13 03:28:22;;;;;;;7.50;5.72;;;;;;;20.15;43.42;101240.56;4986305;28;20089;-84
2023/06/13 03:30:48;;;;;;;7.50;6.03;;;;;;;20.00;42.43;101225.56;4983531;28;20489;-84
2023/06/13 03:33:13;;;;;;;11.13;6.03;;;;;;;20.04;43.16;101232.44;4973244;28;20521;-84
2023/06/13 03:35:38;;;;;;;8.23;5.88;;;;;;;19.97;43.06;101223.13;4984811;28;20034;-84
2023/06/13 03:38:04;;;;;;;7.85;5.80;;;;;;;20.05;43.08;101232.34;4984583;28;20420;-84
2023/06/13 03:40:29;;;;;;;9.68;5.97;;;;;;;20.00;43.23;101221.06;4970408;28;20034;-84
2023/06/13 03:42:54;;;;;;;8.00;6.13;;;;;;;19.97;43.98;101226.69;4984854;28;20397;-84
2023/06/13 03:45:20;;;;;;;8.50;6.53;;;;;;;19.96;42.97;101230.34;4978359;28;20396;-83
2023/06/13 03:47:45;;;;;;;8.98;6.30;;;;;;;19.97;42.91;101225.81;4988039;28;20022;-83
2023/06/13 03:50:10;;;;;;;9.55;6.55;;;;;;;19.85;43.00;101230.25;4966280;28;20778;-84
2023/06/13 03:52:36;;;;;;;11.30;6.85;;;;;;;19.88;43.28;101228.22;4986374;28;20362;-83
2023/06/13 03:55:01;;;;;;;11.80;5.80;;;;;;;19.94;42.72;101229.56;4984455;28;20030;-83
2023/06/13 03:57:26;;;;;;;9.82;6.68;;;;;;;19.93;43.08;101232.38;4985428;28;20029;-83
2023/06/13 03:59:52;;;;;;;8.63;7.10;;;;;;;19.93;43.21;101225.19;4986899;28;20030;-83
2023/06/13 04:02:19;;;;;;;9.18;6.95;;;;;;;19.87;43.46;101225.66;4986807;28;20469;-84
2023/06/13 04:04:46;;;;;;;8.25;6.97;;;;;;;19.88;43.37;101233.56;4985175;28;20152;-83
2023/06/13 04:07:12;;;;;;;8.05;6.82;;;;;;;19.93;43.09;101235.91;4988214;28;20038;-83
2023/06/13 04:09:37;;;;;;;10.82;6.53;;;;;;;19.87;43.19;101236.38;4984526;28;20057;-84
2023/06/13 04:12:03;;;;;;;9.63;6.57;;;;;;;19.82;43.94;101238.53;4988453;28;20273;-83
2023/06/13 04:14:28;;;;;;;9.55;6.60;;;;;;;19.88;44.31;101236.25;4963678;28;20056;-84
2023/06/13 04:16:54;;;;;;;9.52;6.97;;;;;;;19.88;43.85;101227.34;4985500;28;20049;-84
2023/06/13 04:19:19;;;;;;;10.00;7.18;;;;;;;19.90;44.49;101240.66;4987757;28;20022;-83
2023/06/13 04:21:46;;;;;;;9.43;6.93;;;;;;;19.87;44.47;101241.75;4981537;28;20109;-83
2023/06/13 04:24:14;;;;;;;9.70;7.10;;;;;;;19.64;44.79;101238.03;4981605;28;20057;-83
2023/06/13 04:26:41;;;;;;;9.40;7.47;;;;;;;19.92;44.53;101246.78;4980435;28;20537;-83
2023/06/13 04:29:08;;;;;;;10.95;7.50;;;;;;;19.97;44.59;101244.63;4985717;28;20029;-84
2023/06/13 04:31:35;;;;;;;8.73;7.80;;;;;;;19.99;46.14;101245.34;4982103;28;20612;-83
2023/06/13 04:34:05;;;;;;;10.98;8.32;;;;;;;19.95;43.93;101249.22;4985666;28;20031;-83
2023/06/13 04:36:33;;;;;;;9.25;7.18;;;;;;;19.96;44.46;101253.59;4981849;28;20026;-83
2023/06/13 04:39:01;;;;;;;11.75;8.32;;;;;;;20.02;44.74;101256.72;4981022;28;20027;-83
2023/06/13 04:41:27;;;;;;;10.25;7.45;;;;;;;20.06;44.95;101246.63;4983940;28;20026;-85
2023/06/13 04:43:53;;;;;;;8.35;7.00;;;;;;;20.05;44.62;101255.63;4988430;28;20057;-84
2023/06/13 04:46:18;;;;;;;15.32;7.55;;;;;;;20.13;45.10;101253.25;4986377;28;20026;-83
2023/06/13 04:48:44;;;;;;;9.13;6.85;;;;;;;19.95;45.54;101250.06;4987219;28;20037;-83
2023/06/13 04:51:09;;;;;;;11.02;7.07;;;;;;;20.23;44.87;101251.59;4982663;28;20030;-83
2023/06/13 04:53:37;;;;;;;10.90;8.23;;;;;;;20.23;45.13;101251.59;4984167;28;20034;-84
2023/06/13 04:56:03;;;;;;;10.57;7.03;;;;;;;20.30;44.54;101258.22;4981183;28;20359;-84
2023/06/13 04:58:28;;;;;;;12.75;8.90;;;;;;;20.18;44.71;101258.28;4986473;28;20033;-84
2023/06/13 05:00:58;;;;;;;9.95;7.75;;;;;;;20.06;44.91;101262.72;4976720;28;20043;-84
2023/06/13 05:03:25;;;;;;;10.88;7.70;;;;;;;20.12;44.97;101268.50;4983139;28;20045;-83
2023/06/13 05:05:51;;;;;;;11.73;7.78;;;;;;;20.19;44.69;101266.22;4986122;28;20042;-84
2023/06/13 05:08:21;;;;;;;10.25;7.50;;;;;;;20.25;45.72;101268.44;4985008;28;20434;-84
2023/06/13 05:10:47;;;;;;;9.35;7.70;;;;;;;20.30;44.47;101274.34;4982906;28;20453;-83
2023/06/13 05:13:13;;;;;;;10.90;8.27;;;;;;;20.29;44.44;101269.94;4989133;28;20030;-83
2023/06/13 05:15:38;;;;;;;9.90;7.78;;;;;;;20.28;44.92;101270.03;4981652;28;20034;-83
2023/06/13 05:18:06;;;;;;;9.70;7.97;;;;;;;20.36;46.07;101267.66;4987366;28;20034;-83
2023/06/13 05:20:32;;;;;;;11.07;7.88;;;;;;;20.45;44.30;101274.16;4983346;28;20030;-84
2023/06/13 05:23:00;;;;;;;9.43;7.47;;;;;;;20.50;49.48;101277.41;4987021;28;20084;-83
2023/06/13 05:25:25;;;;;;;11.23;8.05;;;;;;;20.52;45.01;101270.94;4987502;28;20448;-84
2023/06/13 05:27:51;;;;;;;12.00;7.72;;;;;;;20.59;44.79;101274.88;4982715;28;20403;-84
2023/06/13 05:30:16;;;;;;;12.63;8.15;;;;;;;20.65;44.19;101276.22;4980546;28;20022;-84
2023/06/13 05:32:41;;;;;;;8.98;7.20;;;;;;;20.64;44.98;101286.13;4987209;28;20030;-84
2023/06/13 05:35:08;;;;;;;13.35;7.20;;;;;;;20.68;44.73;101280.53;4980245;28;20041;-83
2023/06/13 05:37:37;;;;;;;10.13;7.32;;;;;;;20.71;43.50;101275.78;4982299;28;20506;-83
2023/06/13 05:40:04;;;;;;;10.18;7.07;;;;;;;20.78;43.45;101274.34;4982766;28;20026;-83
2023/06/13 05:42:29;;;;;;;11.73;7.05;;;;;;;20.82;42.70;101275.81;4982601;28;20034;-83
2023/06/13 05:44:54;;;;;;;9.43;7.25;;;;;;;20.87;43.16;101276.31;4981345;28;20394;-84
2023/06/13 05:47:19;;;;;;;12.35;7.85;;;;;;;20.93;42.66;101276.81;4967928;28;20081;-83
2023/06/13 05:49:45;;;;;;;12.98;7.65;;;;;;;20.97;41.79;101275.63;4981386;28;20026;-83
2023/06/13 05:52:10;;;;;;;8.80;7.20;;;;;;;20.96;42.42;101276.59;4983877;28;20057;-83
2023/06/13 05:54:35;;;;;;;13.70;7.35;;;;;;;20.98;42.16;101271.94;4982361;28;20498;-83
2023/06/13 05:57:01;;;;;;;7.75;6.57;;;;;;;21.07;41.60;101273.91;4964273;28;20443;-83
2023/06/13 05:59:26;;;;;;;9.75;6.97;;;;;;;21.15;41.72;101276.88;4986132;28;20030;-84
2023/06/13 06:01:51;;;;;;;8.48;7.07;;;;;;;21.17;41.59;101272.25;4979988;28;20030;-84
2023/06/13 06:04:17;;;;;;;9.60;6.95;;;;;;;21.20;41.83;101277.38;4982055;28;20034;-83
2023/06/13 06:06:42;;;;;;;14.52;7.57;;;;;;;21.23;42.06;101276.28;4982746;28;20051;-83
2023/06/13 06:09:08;;;;;;;9.93;7.22;;;;;;;21.26;42.52;101279.56;4984586;28;20117;-83
2023/06/13 06:11:35;;;;;;;9.60;6.55;;;;;;;21.32;42.46;101284.53;4962398;28;20034;-83
2023/06/13 06:14:00;;;;;;;10.25;6.70;;;;;;;21.35;41.80;101283.41;4986055;28;20030;-84
2023/06/13 06:16:25;;;;;;;8.75;6.93;;;;;;;21.47;41.67;101290.53;4964584;28;20536;-83
2023/06/13 06:18:53;;;;;;;12.75;6.68;;;;;;;21.69;43.84;101281.63;4982232;28;20038;-84
2023/06/13 06:21:18;;;;;;;13.80;7.43;;;;;;;21.96;41.22;101277.66;4981012;28;20023;-84
2023/06/13 06:23:44;;;;;;;10.07;7.07;;;;;;;22.18;39.50;101283.06;4978854;28;20739;-84
2023/06/13 06:26:10;;;;;;;8.38;6.72;;;;;;;22.39;39.80;101289.38;4981307;28;20666;-84
2023/06/13 06:28:35;;;;;;;9.30;6.75;;;;;;;22.59;39.58;101290.41;4980606;28;20072;-84
2023/06/13 06:31:00;;;;;;;11.75;6.72;;;;;;;22.72;40.08;101284.84;4981211;28;20057;-84
2023/06/13 06:33:27;;;;;;;9.82;6.78;;;;;;;22.84;39.58;101278.41;4968574;28;20635;-84
2023/06/13 06:35:52;;;;;;;9.40;6.28;;;;;;;22.87;39.18;101280.00;4967369;28;20041;-84
2023/06/13 06:38:18;;;;;;;8.40;6.57;;;;;;;22.75;40.63;101275.63;4971861;28;20018;-84
2023/06/13 06:40:43;;;;;;;9.93;7.13;;;;;;;23.10;38.61;101288.84;4983736;28;20042;-84
2023/06/13 06:43:09;;;;;;;10.18;6.25;;;;;;;23.36;40.12;101279.38;4989105;28;20026;-84
2023/06/13 06:45:34;;;;;;;13.23;6.55;;;;;;;23.39;38.29;101283.63;4968447;28;20030;-84
2023/06/13 06:48:01;;;;;;;8.32;6.45;;;;;;;23.48;40.19;101279.25;4983949;28;20066;-84
2023/06/13 06:50:26;;;;;;;9.27;6.63;;;;;;;23.77;38.21;101274.00;4983279;28;20026;-84
2023/06/13 06:52:52;;;;;;;8.35;6.88;;;;;;;23.96;38.05;101281.31;4987503;28;20041;-84
2023/06/13 06:55:18;;;;;;;9.68;6.78;;;;;;;24.03;38.37;101275.25;4985546;28;20124;-83
2023/06/13 06:57:43;;;;;;;8.73;7.35;;;;;;;24.15;37.81;101278.66;4990160;28;20113;-84
2023/06/13 07:00:10;;;;;;;8.70;7.20;;;;;;;24.23;38.53;101275.28;4984572;28;20022;-84
2023/06/13 07:02:36;;;;;;;8.27;6.70;;;;;;;24.44;37.32;101278.78;4985001;28;20032;-84
2023/06/13 07:05:02;;;;;;;10.85;6.78;;;;;;;24.36;38.42;101278.56;4988422;28;20046;-84
2023/06/13 07:07:27;;;;;;;11.02;7.07;;;;;;;24.24;37.23;101274.28;4987544;28;20022;-84
2023/06/13 07:09:53;;;;;;;12.88;6.07;;;;;;;24.20;38.87;101279.09;4970960;28;20041;-84
2023/06/13 07:12:18;;;;;;;7.05;6.35;;;;;;;24.22;39.54;101279.84;4982743;28;20412;-83
2023/06/13 07:14:43;;;;;;;9.45;6.28;;;;;;;24.44;38.03;101281.47;4986336;28;20031;-84
2023/06/13 07:17:08;;;;;;;7.93;6.38;;;;;;;24.80;37.07;101282.59;4988189;28;20026;-84
2023/06/13 07:19:34;;;;;;;9.40;6.60;;;;;;;24.75;35.76;101290.28;4987519;28;20065;-84
2023/06/13 07:21:59;;;;;;;13.82;7.05;;;;;;;24.50;36.51;101289.00;4987264;28;20193;-84
2023/06/13 07:24:25;;;;;;;8.30;6.18;;;;;;;24.57;39.28;101287.44;4970783;28;20389;-84
2023/06/13 07:26:50;;;;;;;9.32;6.43;;;;;;;25.07;36.24;101289.13;4987493;28;20046;-84
2023/06/13 07:29:15;;;;;;;9.82;6.07;;;;;;;25.42;36.11;101288.53;4984969;28;20109;-83
2023/06/13 07:31:40;;;;;;;12.02;6.97;;;;;;;26.31;33.32;101291.53;4985658;28;20034;-84
2023/06/13 07:34:06;;;;;;;10.70;6.75;;;;;;;26.89;31.88;101284.81;4970238;28;20034;-83
2023/06/13 07:36:32;;;;;;;8.15;6.10;;;;;;;27.43;32.02;101278.28;4988398;28;20029;-83
2023/06/13 07:38:57;;;;;;;7.22;5.72;;;;;;;27.78;30.44;101289.19;4967585;28;20433;-85
2023/06/13 07:41:22;;;;;;;9.32;6.40;;;;;;;27.93;32.18;101293.84;4982199;28;20038;-82
2023/06/13 07:43:49;;;;;;;6.47;5.78;;;;;;;28.47;30.73;101286.22;4983051;28;20516;-82
2023/06/13 07:46:15;;;;;;;11.18;5.97;;;;;;;28.67;29.53;101288.59;4982267;28;20045;-81
2023/06/13 07:48:40;;;;;;;9.02;6.15;;;;;;;29.15;28.37;101284.22;4983493;28;20520;-81
2023/06/13 07:51:05;;;;;;;8.95;6.53;;;;;;;29.06;29.44;101279.81;4985329;28;20026;-84
2023/06/13 07:53:31;;;;;;;12.45;6.30;;;;;;;29.07;28.63;101284.22;4986389;28;20052;-85
2023/06/13 07:55:56;;;;;;;9.13;5.93;;;;;;;29.58;29.68;101288.41;4985774;28;20024;-84
2023/06/13 07:58:21;;;;;;;7.13;5.82;;;;;;;30.32;27.67;101285.38;4990873;28;20423;-85
2023/06/13 08:00:47;;;;;;;9.68;6.65;;;;;;;30.60;25.52;101282.97;4991060;28;20023;-83
2023/06/13 08:03:12;;;;;;;9.93;6.17;;;;;;;30.95;27.04;101287.81;4990205;28;20027;-83
2023/06/13 08:05:37;;;;;;;7.90;6.00;;;;;;;31.29;25.14;101289.25;4990646;28;20927;-83
2023/06/13 08:08:02;;;;;;;9.53;6.00;;;;;;;31.62;25.03;101280.69;4991895;28;20293;-84
2023/06/13 08:10:28;;;;;;;9.88;5.85;;;;;;;31.98;24.87;101284.34;4986802;28;20325;-84
2023/06/13 08:12:53;;;;;;;9.63;5.80;;;;;;;31.82;23.94;101290.03;4981537;28;20038;-84
2023/06/13 08:15:18;;;;;;;8.73;5.55;;;;;;;32.35;24.69;101279.72;4989770;28;20030;-83
2023/06/13 08:17:44;;;;;;;7.22;5.68;;;;;;;32.73;23.89;101280.34;4989912;28;20102;-83
2023/06/13 08:20:10;;;;;;;6.90;5.35;;;;;;;32.46;23.42;101282.00;4986280;28;20476;-83
2023/06/13 08:22:39;;;;;;;12.98;5.55;;;;;;;32.42;24.16;101279.84;4981590;28;20037;-83
2023/06/13 08:25:08;;;;;;;8.38;5.60;;;;;;;32.54;24.03;101293.84;4987703;28;20109;-83
2023/06/13 08:27:35;;;;;;;8.45;5.57;;;;;;;32.50;24.33;101283.31;4984454;28;20252;-83
2023/06/13 08:30:05;;;;;;;8.75;6.10;;;;;;;32.83;24.13;101282.78;4983553;28;20038;-85
2023/06/13 08:32:31;;;;;;;8.20;5.80;;;;;;;32.68;24.67;101273.75;4981848;28;20494;-85
2023/06/13 08:34:57;;;;;;;6.68;5.90;;;;;;;32.90;23.34;101277.34;4987483;28;20065;-85
2023/06/13 08:37:22;;;;;;;6.03;5.30;;;;;;;33.32;24.54;101276.44;4986811;28;20081;-85
2023/06/13 08:39:47;;;;;;;6.90;5.72;;;;;;;33.81;23.84;101275.47;4986771;28;20018;-83
2023/06/13 08:42:12;;;;;;;8.03;5.27;;;;;;;34.05;21.56;101279.63;4987575;28;20022;-83
2023/06/13 08:44:40;;;;;;;7.97;5.28;;;;;;;33.83;22.41;101270.63;4988915;28;20765;-83
2023/06/13 08:47:05;;;;;;;9.65;5.78;;;;;;;33.30;22.12;101273.06;4983100;28;20500;-83
2023/06/13 08:49:31;;;;;;;6.60;5.72;;;;;;;33.44;23.01;101266.63;4985502;28;20026;-84
2023/06/13 08:51:58;;;;;;;8.98;5.50;;;;;;;33.32;22.78;101268.19;4984594;28;20122;-82
2023/06/13 08:54:26;;;;;;;13.10;5.88;;;;;;;33.14;23.75;101263.22;4983566;28;20421;-82
2023/06/13 08:56:53;;;;;;;6.68;5.43;;;;;;;33.59;22.07;101257.44;4983561;28;20265;-82
2023/06/13 08:59:25;;;;;;;7.13;5.85;;;;;;;32.73;22.71;101257.59;4980535;28;20046;-81
2023/06/13 09:01:52;;;;;;;7.70;5.30;;;;;;;32.65;24.11;101255.84;4981872;28;20398;-83
2023/06/13 09:04:17;;;;;;;6.28;4.88;;;;;;;32.75;23.15;101259.09;4968227;28;20064;-82
2023/06/13 09:06:45;;;;;;;7.43;5.88;;;;;;;32.93;24.17;101250.44;4985735;28;20054;-81
2023/06/13 09:09:12;;;;;;;9.02;5.18;;;;;;;32.34;24.56;101256.13;4987912;28;20034;-82
2023/06/13 09:11:38;;;;;;;10.40;5.47;;;;;;;32.38;24.41;101257.47;4979937;28;20030;-80
2023/06/13 09:14:04;;;;;;;8.55;5.90;;;;;;;32.24;24.13;101252.88;4984857;28;20038;-80
2023/06/13 09:16:30;;;;;;;10.10;5.93;;;;;;;32.36;23.77;101254.03;4984551;28;20023;-79
2023/06/13 09:18:57;;;;;;;9.32;5.18;;;;;;;32.68;23.54;101251.84;4987740;28;20158;-80
2023/06/13 09:21:22;;;;;;;6.95;4.85;;;;;;;32.33;23.70;101254.44;4982190;28;20027;-80
2023/06/13 09:23:48;;;;;;;13.43;5.25;;;;;;;32.05;23.86;101251.63;4990006;28;20053;-80
2023/06/13 09:26:18;;;;;;;8.98;5.32;;;;;;;31.67;24.15;101259.09;4985732;28;20485;-83
2023/06/13 09:28:45;;;;;;;10.40;5.68;;;;;;;31.34;24.78;101254.03;4983508;28;20489;-81
2023/06/13 09:31:11;;;;;;;10.57;5.05;;;;;;;31.33;24.71;101263.22;4983990;28;20092;-81
2023/06/13 09:33:37;;;;;;;9.10;4.80;;;;;;;31.85;25.69;101245.91;4985150;28;20034;-80
2023/06/13 09:36:05;;;;;;;7.35;5.07;;;;;;;32.34;22.10;101223.28;4982105;28;20076;-81
2023/06/13 09:38:34;;;;;;;7.13;5.00;;;;;;;32.38;25.22;101251.16;4987795;28;20019;-80
2023/06/13 09:41:02;;;;;;;10.32;5.22;;;;;;;32.04;22.84;101244.44;4982795;28;20029;-80
2023/06/13 09:43:28;;;;;;;9.70;4.93;;;;;;;32.13;23.50;101236.94;4981458;28;20424;-80
2023/06/13 09:45:54;;;;;;;6.88;4.97;;;;;;;32.10;23.12;101240.09;4979177;28;20034;-81
2023/06/13 09:48:20;;;;;;;5.82;4.90;;;;;;;32.40;23.90;101243.59;4987363;28;20100;-81
2023/06/13 09:50:45;;;;;;;6.47;4.93;;;;;;;32.63;23.09;101240.66;4980714;28;20482;-83
2023/06/13 09:53:11;;;;;;;6.38;4.88;;;;;;;33.08;23.39;101244.00;4986505;28;20076;-82
2023/06/13 09:55:36;;;;;;;7.30;5.07;;;;;;;33.45;20.66;101240.06;4978472;28;20046;-81
2023/06/13 09:58:03;;;;;;;8.43;4.97;;;;;;;33.44;21.50;101241.97;4980467;28;20054;-81
2023/06/13 10:00:29;;;;;;;5.18;4.38;;;;;;;33.08;20.76;101250.34;4978700;28;20093;-82
2023/06/13 10:02:55;;;;;;;9.02;5.15;;;;;;;32.90;20.90;101234.38;4981079;28;20521;-80
2023/06/13 10:05:21;;;;;;;8.48;4.60;;;;;;;32.97;22.23;101242.69;4984275;28;20069;-80
2023/06/13 10:07:47;;;;;;;6.65;5.28;;;;;;;33.05;20.19;101237.03;4979808;28;20077;-80
2023/06/13 10:10:12;;;;;;;6.72;4.43;;;;;;;33.45;21.56;101235.44;4981459;28;20422;-80
2023/06/13 10:12:44;;;;;;;7.93;4.88;;;;;;;34.13;20.26;101238.25;4982234;28;20034;-82
2023/06/13 10:15:13;;;;;;;8.52;4.60;;;;;;;34.08;20.29;101235.28;4980606;28;20035;-82
2023/06/13 10:17:42;;;;;;;10.07;4.50;;;;;;;33.99;20.15;101239.25;4980641;28;20072;-82
2023/06/13 10:20:11;;;;;;;8.75;4.78;;;;;;;34.28;19.47;101240.84;4981708;28;20149;-82
2023/06/13 10:22:39;;;;;;;7.60;4.80;;;;;;;34.50;20.20;101236.88;4976034;28;20030;-83
2023/06/13 10:25:07;;;;;;;8.23;5.18;;;;;;;34.52;19.96;101231.19;4982237;28;20022;-82
2023/06/13 10:27:36;;;;;;;8.13;4.72;;;;;;;34.64;20.09;101236.88;4981224;28;20027;-82
2023/06/13 10:30:16;;;;;;;7.00;4.70;;;;;;;34.83;18.96;101227.78;4981510;28;20043;-81
2023/06/13 10:33:10;;;;;;;5.85;4.80;;;;;;;34.67;19.80;101239.22;4981038;28;20058;-80
2023/06/13 10:36:02;;;;;;;8.80;4.85;;;;;;;34.77;20.00;101237.72;4981873;28;20037;-81
2023/06/13 10:38:54;;;;;;;7.90;5.53;;;;;;;34.68;19.06;101241.75;4985481;28;20018;-81
2023/06/13 10:42:07;;;;;;;6.82;4.90;;;;;;;34.84;19.25;101235.00;4984610;28;20043;-81
2023/06/13 10:44:44;;;;;;;6.88;4.40;;;;;;;35.22;18.46;101239.84;4906930;29;20067;-81
2023/06/13 10:47:09;;;;;;;6.13;4.40;;;;;;;35.34;18.00;101224.34;4970052;28;20533;-81
2023/06/13 10:49:39;;;;;;;6.70;4.85;;;;;;;35.12;18.72;101233.94;4979690;28;20117;-81
2023/06/13 10:52:10;;;;;;;7.38;4.47;;;;;;;34.71;18.36;101235.84;4964701;28;20027;-81
2023/06/13 10:54:35;;;;;;;;;;;;;;;34.61;18.47;101234.56;4984396;28;20053;-81
2023/06/13 10:57:01;;;;;;;7.80;4.73;;;;;;;34.26;19.04;101232.78;4982789;28;20356;-81
2023/06/13 10:59:33;;;;;;;6.45;4.70;;;;;;;34.74;17.89;101231.81;4983747;28;20031;-81
2023/06/13 11:01:59;;;;;;;4.95;4.45;;;;;;;35.36;19.18;101225.00;4964725;28;20374;-81
2023/06/13 11:04:27;;;;;;;5.03;4.53;;;;;;;35.31;19.20;101222.06;4985340;28;20391;-81
2023/06/13 11:07:21;;;;;;;6.50;4.30;;;;;;;35.17;17.61;101217.66;4980873;28;20469;-80
2023/06/13 11:10:08;;;;;;;6.03;4.80;;;;;;;34.91;18.86;101211.09;4977926;28;20026;-79
2023/06/13 11:12:34;;;;;;;4.93;4.43;;;;;;;34.95;18.41;101222.50;4975441;28;20404;-80
2023/06/13 11:15:00;;;;;;;7.28;4.90;;;;;;;34.81;17.58;101226.34;4984628;28;20030;-80
2023/06/13 11:17:26;;;;;;;6.28;4.85;;;;;;;35.10;17.93;101217.66;4981235;28;20027;-80
2023/06/13 11:19:53;;;;;;;5.32;4.32;;;;;;;35.02;16.32;101206.88;4980387;28;20015;-80
2023/06/13 11:22:21;;;;;;;7.15;5.28;;;;;;;35.42;16.87;101209.53;4983131;28;20029;-80
2023/06/13 11:24:47;;;;;;;8.15;5.28;;;;;;;34.95;17.55;101206.88;4986759;28;20033;-81